< < Back
Terminal Aerodrome Forecast


Current Version              Previous Versions:   1  2  3  4  5  6  7  8  9  

Terminal Aerodrome Forecast

070
FTUS42 KFFC 292329
TAFATL
TAF
KATL 292329Z 3000/3106 22006KT P6SM BKN100
     FM300100 22006KT P6SM BKN050
     FM300300 23008KT P6SM VCSH BKN025 OVC080
     FM300500 32015G25KT P6SM OVC025
     FM300700 32013G22KT P6SM OVC020
     FM301200 32014G24KT P6SM SCT040
     FM301500 32014G24KT P6SM SCT150
     FM310000 33009KT P6SM SKC=



Latest METAR

047
SAUS70 KWBC 300900 RRB
MTRATL
METAR KATL 300852Z 33020G35KT 10SM OVC024 06/M01 A3017 RMK AO2 PK WND
35035/0848 SLP219 T00611006 51026


USA.gov is the U.S. government's official web portal to all federal, state and local government web resources and services.